sensor_id;sensor_type;location;lat;lon;timestamp;temperature;humidity
37646;DHT22;23489;49.600;6.138;2023-06-22T00:01:28;20.90;99.90
37646;DHT22;23489;49.600;6.138;2023-06-22T00:03:53;20.90;99.90
37646;DHT22;23489;49.600;6.138;2023-06-22T00:06:19;20.80;99.90
37646;DHT22;23489;49.600;6.138;2023-06-22T00:08:45;20.80;99.90
37646;DHT22;23489;49.600;6.138;2023-06-22T00:11:11;20.70;99.90
37646;DHT22;23489;49.600;6.138;2023-06-22T00:13:38;20.70;99.90
37646;DHT22;23489;49.600;6.138;2023-06-22T00:16:04;20.70;99.90
37646;DHT22;23489;49.600;6.138;2023-06-22T00:18:29;20.60;99.90
37646;DHT22;23489;49.600;6.138;2023-06-22T00:20:55;20.60;99.90
37646;DHT22;23489;49.600;6.138;2023-06-22T00:23:24;20.60;99.90
37646;DHT22;23489;49.600;6.138;2023-06-22T00:25:49;20.50;99.90
37646;DHT22;23489;49.600;6.138;2023-06-22T00:28:15;20.50;99.90
37646;DHT22;23489;49.600;6.138;2023-06-22T00:30:41;20.50;99.90
37646;DHT22;23489;49.600;6.138;2023-06-22T00:33:06;20.50;99.90
37646;DHT22;23489;49.600;6.138;2023-06-22T00:35:33;20.60;99.90
37646;DHT22;23489;49.600;6.138;2023-06-22T00:38:00;20.60;99.90
37646;DHT22;23489;49.600;6.138;2023-06-22T00:40:27;20.60;99.90
37646;DHT22;23489;49.600;6.138;2023-06-22T00:42:54;20.60;99.90
37646;DHT22;23489;49.600;6.138;2023-06-22T00:45:20;20.50;99.90
37646;DHT22;23489;49.600;6.138;2023-06-22T00:47:46;20.50;99.90
37646;DHT22;23489;49.600;6.138;2023-06-22T00:50:14;20.50;99.90
37646;DHT22;23489;49.600;6.138;2023-06-22T00:52:44;20.50;99.90
37646;DHT22;23489;49.600;6.138;2023-06-22T00:55:10;20.40;99.90
37646;DHT22;23489;49.600;6.138;2023-06-22T00:57:36;20.40;99.90
37646;DHT22;23489;49.600;6.138;2023-06-22T01:00:03;20.10;99.90
37646;DHT22;23489;49.600;6.138;2023-06-22T01:02:33;19.90;99.90
37646;DHT22;23489;49.600;6.138;2023-06-22T01:04:59;19.80;99.90
37646;DHT22;23489;49.600;6.138;2023-06-22T01:07:35;19.70;99.90
37646;DHT22;23489;49.600;6.138;2023-06-22T01:10:21;19.60;99.90
37646;DHT22;23489;49.600;6.138;2023-06-22T01:12:56;19.70;99.90
37646;DHT22;23489;49.600;6.138;2023-06-22T01:18:09;19.80;99.90
37646;DHT22;23489;49.600;6.138;2023-06-22T01:20:36;19.70;99.90
37646;DHT22;23489;49.600;6.138;2023-06-22T01:25:48;19.70;99.90
37646;DHT22;23489;49.600;6.138;2023-06-22T01:28:39;19.70;99.90
37646;DHT22;23489;49.600;6.138;2023-06-22T01:31:10;19.70;99.90
37646;DHT22;23489;49.600;6.138;2023-06-22T01:33:40;19.70;99.90
37646;DHT22;23489;49.600;6.138;2023-06-22T01:36:07;19.70;99.90
37646;DHT22;23489;49.600;6.138;2023-06-22T01:38:34;19.60;99.90
37646;DHT22;23489;49.600;6.138;2023-06-22T01:41:01;19.60;99.90
37646;DHT22;23489;49.600;6.138;2023-06-22T01:43:28;19.60;99.90
37646;DHT22;23489;49.600;6.138;2023-06-22T01:45:55;19.60;99.90
37646;DHT22;23489;49.600;6.138;2023-06-22T01:48:22;19.60;99.90
37646;DHT22;23489;49.600;6.138;2023-06-22T01:50:48;19.60;99.90
37646;DHT22;23489;49.600;6.138;2023-06-22T01:53:14;19.60;99.90
37646;DHT22;23489;49.600;6.138;2023-06-22T01:55:39;19.60;99.90
37646;DHT22;23489;49.600;6.138;2023-06-22T01:58:05;19.60;99.90
37646;DHT22;23489;49.600;6.138;2023-06-22T02:00:37;19.50;99.90
37646;DHT22;23489;49.600;6.138;2023-06-22T02:03:13;19.40;99.90
37646;DHT22;23489;49.600;6.138;2023-06-22T02:05:52;19.40;99.90
37646;DHT22;23489;49.600;6.138;2023-06-22T02:08:31;19.30;99.90
37646;DHT22;23489;49.600;6.138;2023-06-22T02:10:59;19.30;99.90
37646;DHT22;23489;49.600;6.138;2023-06-22T02:13:26;19.30;99.90
37646;DHT22;23489;49.600;6.138;2023-06-22T02:15:53;19.30;99.90
37646;DHT22;23489;49.600;6.138;2023-06-22T02:18:19;19.30;99.90
37646;DHT22;23489;49.600;6.138;2023-06-22T02:20:46;19.30;99.90
37646;DHT22;23489;49.600;6.138;2023-06-22T02:23:11;19.30;99.90
37646;DHT22;23489;49.600;6.138;2023-06-22T02:25:37;19.30;99.90
37646;DHT22;23489;49.600;6.138;2023-06-22T02:28:03;19.20;99.90
37646;DHT22;23489;49.600;6.138;2023-06-22T02:30:29;19.30;99.90
37646;DHT22;23489;49.600;6.138;2023-06-22T02:32:54;19.20;99.90
37646;DHT22;23489;49.600;6.138;2023-06-22T02:35:26;19.30;99.90
37646;DHT22;23489;49.600;6.138;2023-06-22T02:37:51;19.30;99.90
37646;DHT22;23489;49.600;6.138;2023-06-22T02:40:17;19.40;99.90
37646;DHT22;23489;49.600;6.138;2023-06-22T02:42:43;19.40;99.90
37646;DHT22;23489;49.600;6.138;2023-06-22T02:45:09;19.40;99.90
37646;DHT22;23489;49.600;6.138;2023-06-22T02:47:35;19.40;99.90
37646;DHT22;23489;49.600;6.138;2023-06-22T02:50:01;19.40;99.90
37646;DHT22;23489;49.600;6.138;2023-06-22T02:52:29;19.40;99.90
37646;DHT22;23489;49.600;6.138;2023-06-22T02:54:55;19.40;99.90
37646;DHT22;23489;49.600;6.138;2023-06-22T02:57:21;19.40;99.90
37646;DHT22;23489;49.600;6.138;2023-06-22T02:59:47;19.40;99.90
37646;DHT22;23489;49.600;6.138;2023-06-22T03:02:12;19.40;99.90
37646;DHT22;23489;49.600;6.138;2023-06-22T03:04:39;19.40;99.90
37646;DHT22;23489;49.600;6.138;2023-06-22T03:07:05;19.40;99.90
37646;DHT22;23489;49.600;6.138;2023-06-22T03:09:32;19.40;99.90
37646;DHT22;23489;49.600;6.138;2023-06-22T03:11:58;19.40;99.90
37646;DHT22;23489;49.600;6.138;2023-06-22T03:14:28;19.40;99.90
37646;DHT22;23489;49.600;6.138;2023-06-22T03:16:53;19.40;99.90
37646;DHT22;23489;49.600;6.138;2023-06-22T03:19:19;19.40;99.90
37646;DHT22;23489;49.600;6.138;2023-06-22T03:21:47;19.50;99.90
37646;DHT22;23489;49.600;6.138;2023-06-22T03:24:13;19.40;99.90
37646;DHT22;23489;49.600;6.138;2023-06-22T03:26:38;19.40;99.90
37646;DHT22;23489;49.600;6.138;2023-06-22T03:29:04;19.40;99.90
37646;DHT22;23489;49.600;6.138;2023-06-22T03:31:30;19.40;99.90
37646;DHT22;23489;49.600;6.138;2023-06-22T03:33:56;19.40;99.90
37646;DHT22;23489;49.600;6.138;2023-06-22T03:36:23;19.50;99.90
37646;DHT22;23489;49.600;6.138;2023-06-22T03:38:49;19.50;99.90
37646;DHT22;23489;49.600;6.138;2023-06-22T03:41:16;19.50;99.90
37646;DHT22;23489;49.600;6.138;2023-06-22T03:43:42;19.40;99.90
37646;DHT22;23489;49.600;6.138;2023-06-22T03:46:08;19.40;99.90
37646;DHT22;23489;49.600;6.138;2023-06-22T03:48:33;19.30;99.90
37646;DHT22;23489;49.600;6.138;2023-06-22T03:50:59;19.40;99.90
37646;DHT22;23489;49.600;6.138;2023-06-22T03:53:25;19.40;99.90
37646;DHT22;23489;49.600;6.138;2023-06-22T03:55:52;19.50;99.90
37646;DHT22;23489;49.600;6.138;2023-06-22T03:58:19;19.50;99.90
37646;DHT22;23489;49.600;6.138;2023-06-22T04:00:50;19.50;99.90
37646;DHT22;23489;49.600;6.138;2023-06-22T04:03:16;19.60;99.90
37646;DHT22;23489;49.600;6.138;2023-06-22T04:05:44;19.60;99.90
37646;DHT22;23489;49.600;6.138;2023-06-22T04:08:10;19.70;99.90
37646;DHT22;23489;49.600;6.138;2023-06-22T04:10:36;19.80;99.90
37646;DHT22;23489;49.600;6.138;2023-06-22T04:13:01;19.80;99.90
37646;DHT22;23489;49.600;6.138;2023-06-22T04:15:27;19.70;99.90
37646;DHT22;23489;49.600;6.138;2023-06-22T04:17:55;19.70;99.90
37646;DHT22;23489;49.600;6.138;2023-06-22T04:20:21;19.70;99.90
37646;DHT22;23489;49.600;6.138;2023-06-22T04:22:47;19.80;99.90
37646;DHT22;23489;49.600;6.138;2023-06-22T04:25:12;19.80;99.90
37646;DHT22;23489;49.600;6.138;2023-06-22T04:27:38;19.90;99.90
37646;DHT22;23489;49.600;6.138;2023-06-22T04:30:08;19.90;99.90
37646;DHT22;23489;49.600;6.138;2023-06-22T04:32:34;20.00;99.90
37646;DHT22;23489;49.600;6.138;2023-06-22T04:35:02;20.10;99.90
37646;DHT22;23489;49.600;6.138;2023-06-22T04:37:30;20.10;99.90
37646;DHT22;23489;49.600;6.138;2023-06-22T04:39:55;20.10;99.90
37646;DHT22;23489;49.600;6.138;2023-06-22T04:42:21;20.00;99.90
37646;DHT22;23489;49.600;6.138;2023-06-22T04:44:47;20.00;99.90
37646;DHT22;23489;49.600;6.138;2023-06-22T04:47:12;20.00;99.90
37646;DHT22;23489;49.600;6.138;2023-06-22T04:49:38;20.10;99.90
37646;DHT22;23489;49.600;6.138;2023-06-22T04:52:09;20.10;99.90
37646;DHT22;23489;49.600;6.138;2023-06-22T04:54:37;20.10;99.90
37646;DHT22;23489;49.600;6.138;2023-06-22T04:57:05;20.30;99.90
37646;DHT22;23489;49.600;6.138;2023-06-22T04:59:35;20.40;99.90
37646;DHT22;23489;49.600;6.138;2023-06-22T05:02:02;20.50;99.90
37646;DHT22;23489;49.600;6.138;2023-06-22T05:04:29;20.60;99.90
37646;DHT22;23489;49.600;6.138;2023-06-22T05:06:59;20.80;99.90
37646;DHT22;23489;49.600;6.138;2023-06-22T05:09:26;21.00;99.90
37646;DHT22;23489;49.600;6.138;2023-06-22T05:11:51;21.40;99.90
37646;DHT22;23489;49.600;6.138;2023-06-22T05:14:17;21.40;99.90
37646;DHT22;23489;49.600;6.138;2023-06-22T05:16:44;21.60;99.90
37646;DHT22;23489;49.600;6.138;2023-06-22T05:19:10;21.70;99.90
37646;DHT22;23489;49.600;6.138;2023-06-22T05:21:37;21.70;99.90
37646;DHT22;23489;49.600;6.138;2023-06-22T05:24:02;21.80;99.90
37646;DHT22;23489;49.600;6.138;2023-06-22T05:26:32;21.90;99.90
37646;DHT22;23489;49.600;6.138;2023-06-22T05:29:00;21.90;99.90
37646;DHT22;23489;49.600;6.138;2023-06-22T05:31:26;21.80;99.90
37646;DHT22;23489;49.600;6.138;2023-06-22T05:33:53;21.70;99.90
37646;DHT22;23489;49.600;6.138;2023-06-22T05:36:19;21.70;99.90
37646;DHT22;23489;49.600;6.138;2023-06-22T05:38:47;21.70;99.90
37646;DHT22;23489;49.600;6.138;2023-06-22T05:41:13;21.70;99.90
37646;DHT22;23489;49.600;6.138;2023-06-22T05:43:40;21.80;99.90
37646;DHT22;23489;49.600;6.138;2023-06-22T05:46:06;22.00;99.90
37646;DHT22;23489;49.600;6.138;2023-06-22T05:48:32;22.20;99.90
37646;DHT22;23489;49.600;6.138;2023-06-22T05:50:59;22.40;99.90
37646;DHT22;23489;49.600;6.138;2023-06-22T05:53:24;22.50;99.90
37646;DHT22;23489;49.600;6.138;2023-06-22T05:55:50;22.60;99.90
37646;DHT22;23489;49.600;6.138;2023-06-22T05:58:16;22.80;99.90
37646;DHT22;23489;49.600;6.138;2023-06-22T06:00:42;23.10;99.90
37646;DHT22;23489;49.600;6.138;2023-06-22T06:03:09;23.50;99.90
37646;DHT22;23489;49.600;6.138;2023-06-22T06:05:35;23.60;99.90
37646;DHT22;23489;49.600;6.138;2023-06-22T06:08:03;23.70;99.90
37646;DHT22;23489;49.600;6.138;2023-06-22T06:10:30;23.70;99.90
37646;DHT22;23489;49.600;6.138;2023-06-22T06:12:56;23.70;99.90
37646;DHT22;23489;49.600;6.138;2023-06-22T06:15:22;23.70;99.90
37646;DHT22;23489;49.600;6.138;2023-06-22T06:17:52;23.90;99.90
37646;DHT22;23489;49.600;6.138;2023-06-22T06:20:23;24.00;99.90
37646;DHT22;23489;49.600;6.138;2023-06-22T06:22:49;24.20;99.90
37646;DHT22;23489;49.600;6.138;2023-06-22T06:25:15;24.10;99.90
37646;DHT22;23489;49.600;6.138;2023-06-22T06:27:44;23.90;99.90
37646;DHT22;23489;49.600;6.138;2023-06-22T06:30:11;23.70;99.90
37646;DHT22;23489;49.600;6.138;2023-06-22T06:32:37;23.70;99.90
37646;DHT22;23489;49.600;6.138;2023-06-22T06:35:08;23.80;99.90
37646;DHT22;23489;49.600;6.138;2023-06-22T06:37:39;24.20;99.90
37646;DHT22;23489;49.600;6.138;2023-06-22T06:40:06;24.20;99.90
37646;DHT22;23489;49.600;6.138;2023-06-22T06:42:36;24.40;99.90
37646;DHT22;23489;49.600;6.138;2023-06-22T06:45:04;24.40;99.90
37646;DHT22;23489;49.600;6.138;2023-06-22T06:47:30;24.60;99.90
37646;DHT22;23489;49.600;6.138;2023-06-22T06:49:56;25.00;99.90
37646;DHT22;23489;49.600;6.138;2023-06-22T06:52:21;25.10;99.90
37646;DHT22;23489;49.600;6.138;2023-06-22T06:54:47;25.40;99.90
37646;DHT22;23489;49.600;6.138;2023-06-22T06:57:12;25.80;99.90
37646;DHT22;23489;49.600;6.138;2023-06-22T06:59:38;26.40;99.90
37646;DHT22;23489;49.600;6.138;2023-06-22T07:02:05;26.60;99.90
37646;DHT22;23489;49.600;6.138;2023-06-22T07:04:30;27.20;99.90
37646;DHT22;23489;49.600;6.138;2023-06-22T07:06:56;28.00;99.90
37646;DHT22;23489;49.600;6.138;2023-06-22T07:09:21;28.30;99.90
37646;DHT22;23489;49.600;6.138;2023-06-22T07:11:47;28.80;99.90
37646;DHT22;23489;49.600;6.138;2023-06-22T07:14:13;29.30;99.90
37646;DHT22;23489;49.600;6.138;2023-06-22T07:16:38;29.00;99.90
37646;DHT22;23489;49.600;6.138;2023-06-22T07:19:04;29.80;99.90
37646;DHT22;23489;49.600;6.138;2023-06-22T07:21:29;30.30;99.90
37646;DHT22;23489;49.600;6.138;2023-06-22T07:23:55;30.80;99.90
37646;DHT22;23489;49.600;6.138;2023-06-22T07:26:21;30.20;99.90
37646;DHT22;23489;49.600;6.138;2023-06-22T07:28:47;29.70;99.90
37646;DHT22;23489;49.600;6.138;2023-06-22T07:31:12;29.70;99.90
37646;DHT22;23489;49.600;6.138;2023-06-22T07:33:38;29.90;99.90
37646;DHT22;23489;49.600;6.138;2023-06-22T07:36:04;29.30;99.90
37646;DHT22;23489;49.600;6.138;2023-06-22T07:38:33;27.90;99.90
37646;DHT22;23489;49.600;6.138;2023-06-22T07:40:59;27.00;99.90
37646;DHT22;23489;49.600;6.138;2023-06-22T07:43:24;26.00;99.90
37646;DHT22;23489;49.600;6.138;2023-06-22T07:45:50;25.40;99.90
37646;DHT22;23489;49.600;6.138;2023-06-22T07:48:22;24.90;99.90
37646;DHT22;23489;49.600;6.138;2023-06-22T07:50:48;24.80;99.90
37646;DHT22;23489;49.600;6.138;2023-06-22T07:53:14;24.70;99.90
37646;DHT22;23489;49.600;6.138;2023-06-22T07:55:39;24.60;99.90
37646;DHT22;23489;49.600;6.138;2023-06-22T07:58:05;24.40;99.90
37646;DHT22;23489;49.600;6.138;2023-06-22T08:00:30;24.20;99.90
37646;DHT22;23489;49.600;6.138;2023-06-22T08:02:56;24.20;99.90
37646;DHT22;23489;49.600;6.138;2023-06-22T08:05:22;24.20;99.90
37646;DHT22;23489;49.600;6.138;2023-06-22T08:07:47;24.00;99.90
37646;DHT22;23489;49.600;6.138;2023-06-22T08:10:13;23.90;99.90
37646;DHT22;23489;49.600;6.138;2023-06-22T08:12:41;23.70;99.90
37646;DHT22;23489;49.600;6.138;2023-06-22T08:15:07;23.40;99.90
37646;DHT22;23489;49.600;6.138;2023-06-22T08:17:33;23.30;99.90
37646;DHT22;23489;49.600;6.138;2023-06-22T08:19:58;23.20;99.90
37646;DHT22;23489;49.600;6.138;2023-06-22T08:22:24;23.20;99.90
37646;DHT22;23489;49.600;6.138;2023-06-22T08:24:49;23.10;99.90
37646;DHT22;23489;49.600;6.138;2023-06-22T08:27:15;23.00;99.90
37646;DHT22;23489;49.600;6.138;2023-06-22T08:29:42;22.90;99.90
37646;DHT22;23489;49.600;6.138;2023-06-22T08:32:08;22.90;99.90
37646;DHT22;23489;49.600;6.138;2023-06-22T08:34:34;22.90;99.90
37646;DHT22;23489;49.600;6.138;2023-06-22T08:37:00;22.90;99.90
37646;DHT22;23489;49.600;6.138;2023-06-22T08:39:26;22.90;99.90
37646;DHT22;23489;49.600;6.138;2023-06-22T08:41:51;22.50;99.90
37646;DHT22;23489;49.600;6.138;2023-06-22T08:44:18;22.10;99.90
37646;DHT22;23489;49.600;6.138;2023-06-22T08:46:44;21.80;99.90
37646;DHT22;23489;49.600;6.138;2023-06-22T08:49:09;21.60;99.90
37646;DHT22;23489;49.600;6.138;2023-06-22T08:51:35;21.60;99.90
37646;DHT22;23489;49.600;6.138;2023-06-22T08:54:01;21.40;99.90
37646;DHT22;23489;49.600;6.138;2023-06-22T08:56:26;21.30;99.90
37646;DHT22;23489;49.600;6.138;2023-06-22T08:58:52;21.20;99.90
37646;DHT22;23489;49.600;6.138;2023-06-22T09:01:17;21.20;99.90
37646;DHT22;23489;49.600;6.138;2023-06-22T09:03:43;21.10;99.90
37646;DHT22;23489;49.600;6.138;2023-06-22T09:06:08;21.10;99.90
37646;DHT22;23489;49.600;6.138;2023-06-22T09:08:39;21.20;99.90
37646;DHT22;23489;49.600;6.138;2023-06-22T09:11:04;21.20;99.90
37646;DHT22;23489;49.600;6.138;2023-06-22T09:13:30;21.10;99.90
37646;DHT22;23489;49.600;6.138;2023-06-22T09:15:56;21.00;99.90
37646;DHT22;23489;49.600;6.138;2023-06-22T09:18:21;21.10;99.90
37646;DHT22;23489;49.600;6.138;2023-06-22T09:20:47;21.30;99.90
37646;DHT22;23489;49.600;6.138;2023-06-22T09:23:12;21.60;99.90
37646;DHT22;23489;49.600;6.138;2023-06-22T09:25:38;21.80;99.90
37646;DHT22;23489;49.600;6.138;2023-06-22T09:28:05;21.90;99.90
37646;DHT22;23489;49.600;6.138;2023-06-22T09:30:30;22.20;99.90
37646;DHT22;23489;49.600;6.138;2023-06-22T09:32:56;22.90;99.90
37646;DHT22;23489;49.600;6.138;2023-06-22T09:35:21;23.20;99.90
37646;DHT22;23489;49.600;6.138;2023-06-22T09:37:49;23.40;99.90
37646;DHT22;23489;49.600;6.138;2023-06-22T09:40:14;23.70;99.90
37646;DHT22;23489;49.600;6.138;2023-06-22T09:42:42;23.80;99.90
37646;DHT22;23489;49.600;6.138;2023-06-22T09:45:08;23.90;99.90
37646;DHT22;23489;49.600;6.138;2023-06-22T09:47:34;23.90;99.90
37646;DHT22;23489;49.600;6.138;2023-06-22T09:50:00;23.90;99.90
37646;DHT22;23489;49.600;6.138;2023-06-22T09:52:26;24.40;99.90
37646;DHT22;23489;49.600;6.138;2023-06-22T09:54:51;24.60;99.90
37646;DHT22;23489;49.600;6.138;2023-06-22T09:57:17;24.80;99.90
37646;DHT22;23489;49.600;6.138;2023-06-22T09:59:42;25.70;99.90
37646;DHT22;23489;49.600;6.138;2023-06-22T10:02:08;26.50;99.90
37646;DHT22;23489;49.600;6.138;2023-06-22T10:04:34;27.30;99.90
37646;DHT22;23489;49.600;6.138;2023-06-22T10:07:00;28.50;99.90
37646;DHT22;23489;49.600;6.138;2023-06-22T10:09:26;29.80;99.90
37646;DHT22;23489;49.600;6.138;2023-06-22T10:11:52;29.80;99.90
37646;DHT22;23489;49.600;6.138;2023-06-22T10:14:17;29.60;99.90
37646;DHT22;23489;49.600;6.138;2023-06-22T10:16:43;29.90;99.90
37646;DHT22;23489;49.600;6.138;2023-06-22T10:19:09;29.80;99.90
37646;DHT22;23489;49.600;6.138;2023-06-22T10:21:34;29.00;99.90
37646;DHT22;23489;49.600;6.138;2023-06-22T10:24:01;27.80;99.90
37646;DHT22;23489;49.600;6.138;2023-06-22T10:26:32;26.80;99.90
37646;DHT22;23489;49.600;6.138;2023-06-22T10:28:58;25.70;99.90
37646;DHT22;23489;49.600;6.138;2023-06-22T10:31:24;24.70;99.90
37646;DHT22;23489;49.600;6.138;2023-06-22T10:33:50;24.20;99.90
37646;DHT22;23489;49.600;6.138;2023-06-22T10:36:16;24.20;99.90
37646;DHT22;23489;49.600;6.138;2023-06-22T10:38:41;24.60;99.90
37646;DHT22;23489;49.600;6.138;2023-06-22T10:41:07;25.40;99.90
37646;DHT22;23489;49.600;6.138;2023-06-22T10:43:32;26.20;99.90
37646;DHT22;23489;49.600;6.138;2023-06-22T10:45:58;27.00;99.90
37646;DHT22;23489;49.600;6.138;2023-06-22T10:48:23;27.60;99.90
37646;DHT22;23489;49.600;6.138;2023-06-22T10:50:49;28.00;99.90
37646;DHT22;23489;49.600;6.138;2023-06-22T10:53:14;27.50;99.90
37646;DHT22;23489;49.600;6.138;2023-06-22T10:55:40;27.30;99.90
37646;DHT22;23489;49.600;6.138;2023-06-22T10:58:05;27.20;99.90
37646;DHT22;23489;49.600;6.138;2023-06-22T11:00:31;27.30;99.90
37646;DHT22;23489;49.600;6.138;2023-06-22T11:02:56;27.90;99.90
37646;DHT22;23489;49.600;6.138;2023-06-22T11:05:23;28.70;99.90
37646;DHT22;23489;49.600;6.138;2023-06-22T11:07:49;28.90;99.90
37646;DHT22;23489;49.600;6.138;2023-06-22T11:10:15;29.00;99.90
37646;DHT22;23489;49.600;6.138;2023-06-22T11:12:40;28.90;99.90
37646;DHT22;23489;49.600;6.138;2023-06-22T11:15:07;28.10;99.90
37646;DHT22;23489;49.600;6.138;2023-06-22T11:17:33;27.40;99.90
37646;DHT22;23489;49.600;6.138;2023-06-22T11:19:58;27.20;99.90
37646;DHT22;23489;49.600;6.138;2023-06-22T11:22:25;27.00;99.90
37646;DHT22;23489;49.600;6.138;2023-06-22T11:24:51;26.70;99.90
37646;DHT22;23489;49.600;6.138;2023-06-22T11:27:16;26.70;99.90
37646;DHT22;23489;49.600;6.138;2023-06-22T11:29:42;26.60;99.90
37646;DHT22;23489;49.600;6.138;2023-06-22T11:32:07;26.60;99.90
37646;DHT22;23489;49.600;6.138;2023-06-22T11:34:33;26.50;99.90
37646;DHT22;23489;49.600;6.138;2023-06-22T11:36:59;26.80;99.90
37646;DHT22;23489;49.600;6.138;2023-06-22T11:39:24;26.90;99.90
37646;DHT22;23489;49.600;6.138;2023-06-22T11:41:49;27.10;99.90
37646;DHT22;23489;49.600;6.138;2023-06-22T11:44:15;27.10;99.90
37646;DHT22;23489;49.600;6.138;2023-06-22T11:46:40;27.00;99.90
37646;DHT22;23489;49.600;6.138;2023-06-22T11:49:06;27.30;99.90
37646;DHT22;23489;49.600;6.138;2023-06-22T11:51:32;27.40;99.90
37646;DHT22;23489;49.600;6.138;2023-06-22T11:53:57;27.50;99.90
37646;DHT22;23489;49.600;6.138;2023-06-22T11:56:24;27.50;99.90
37646;DHT22;23489;49.600;6.138;2023-06-22T11:58:49;27.40;99.90
37646;DHT22;23489;49.600;6.138;2023-06-22T12:01:15;27.30;99.90
37646;DHT22;23489;49.600;6.138;2023-06-22T12:03:41;27.20;99.90
37646;DHT22;23489;49.600;6.138;2023-06-22T12:06:08;27.20;99.90
37646;DHT22;23489;49.600;6.138;2023-06-22T12:08:34;27.20;99.90
37646;DHT22;23489;49.600;6.138;2023-06-22T12:10:59;27.30;99.90
37646;DHT22;23489;49.600;6.138;2023-06-22T12:13:25;27.40;99.90
37646;DHT22;23489;49.600;6.138;2023-06-22T12:15:50;27.50;99.90
37646;DHT22;23489;49.600;6.138;2023-06-22T12:18:18;27.70;99.90
37646;DHT22;23489;49.600;6.138;2023-06-22T12:20:46;27.80;99.90
37646;DHT22;23489;49.600;6.138;2023-06-22T12:23:11;28.00;99.90
37646;DHT22;23489;49.600;6.138;2023-06-22T12:25:37;28.10;99.90
37646;DHT22;23489;49.600;6.138;2023-06-22T12:28:02;28.20;99.90
37646;DHT22;23489;49.600;6.138;2023-06-22T12:30:30;28.20;99.90
37646;DHT22;23489;49.600;6.138;2023-06-22T12:32:55;28.50;99.90
37646;DHT22;23489;49.600;6.138;2023-06-22T12:35:21;28.50;99.90
37646;DHT22;23489;49.600;6.138;2023-06-22T12:37:46;28.80;99.90
37646;DHT22;23489;49.600;6.138;2023-06-22T12:40:12;29.00;99.90
37646;DHT22;23489;49.600;6.138;2023-06-22T12:42:37;28.90;99.90
37646;DHT22;23489;49.600;6.138;2023-06-22T12:45:03;28.90;99.90
37646;DHT22;23489;49.600;6.138;2023-06-22T12:47:29;28.60;99.90
37646;DHT22;23489;49.600;6.138;2023-06-22T12:49:54;28.20;99.90
37646;DHT22;23489;49.600;6.138;2023-06-22T12:52:20;27.90;99.90
37646;DHT22;23489;49.600;6.138;2023-06-22T12:54:45;27.60;99.90
37646;DHT22;23489;49.600;6.138;2023-06-22T12:57:11;27.40;99.90
37646;DHT22;23489;49.600;6.138;2023-06-22T12:59:36;27.20;99.90
37646;DHT22;23489;49.600;6.138;2023-06-22T13:02:02;26.90;99.90
37646;DHT22;23489;49.600;6.138;2023-06-22T13:04:28;26.70;99.90
37646;DHT22;23489;49.600;6.138;2023-06-22T13:06:53;26.60;99.90
37646;DHT22;23489;49.600;6.138;2023-06-22T13:09:19;26.50;99.90
37646;DHT22;23489;49.600;6.138;2023-06-22T13:11:45;26.40;99.90
37646;DHT22;23489;49.600;6.138;2023-06-22T13:14:10;26.30;99.90
37646;DHT22;23489;49.600;6.138;2023-06-22T13:16:36;26.10;99.90
37646;DHT22;23489;49.600;6.138;2023-06-22T13:19:01;25.80;99.90
37646;DHT22;23489;49.600;6.138;2023-06-22T13:21:27;25.60;99.90
37646;DHT22;23489;49.600;6.138;2023-06-22T13:23:52;25.30;99.90
37646;DHT22;23489;49.600;6.138;2023-06-22T13:26:20;25.00;99.90
37646;DHT22;23489;49.600;6.138;2023-06-22T13:28:46;24.80;99.90
37646;DHT22;23489;49.600;6.138;2023-06-22T13:31:12;24.60;99.90
37646;DHT22;23489;49.600;6.138;2023-06-22T13:33:37;24.40;99.90
37646;DHT22;23489;49.600;6.138;2023-06-22T13:36:03;24.30;99.90
37646;DHT22;23489;49.600;6.138;2023-06-22T13:38:29;24.20;99.90
37646;DHT22;23489;49.600;6.138;2023-06-22T13:40:54;24.20;99.90
37646;DHT22;23489;49.600;6.138;2023-06-22T13:43:22;24.20;99.90
37646;DHT22;23489;49.600;6.138;2023-06-22T13:45:48;24.10;99.90
37646;DHT22;23489;49.600;6.138;2023-06-22T13:48:14;24.10;99.90
37646;DHT22;23489;49.600;6.138;2023-06-22T13:50:40;24.10;99.90
37646;DHT22;23489;49.600;6.138;2023-06-22T13:53:05;24.10;99.90
37646;DHT22;23489;49.600;6.138;2023-06-22T13:55:31;24.10;99.90
37646;DHT22;23489;49.600;6.138;2023-06-22T13:57:56;24.20;99.90
37646;DHT22;23489;49.600;6.138;2023-06-22T14:00:22;24.20;99.90
37646;DHT22;23489;49.600;6.138;2023-06-22T14:02:48;24.40;99.90
37646;DHT22;23489;49.600;6.138;2023-06-22T14:05:14;24.50;99.90
37646;DHT22;23489;49.600;6.138;2023-06-22T14:07:39;24.60;99.90
37646;DHT22;23489;49.600;6.138;2023-06-22T14:10:05;24.90;99.90
37646;DHT22;23489;49.600;6.138;2023-06-22T14:12:30;25.10;99.90
37646;DHT22;23489;49.600;6.138;2023-06-22T14:14:56;25.20;99.90
37646;DHT22;23489;49.600;6.138;2023-06-22T14:17:22;25.50;99.90
37646;DHT22;23489;49.600;6.138;2023-06-22T14:19:50;25.50;99.90
37646;DHT22;23489;49.600;6.138;2023-06-22T14:22:18;25.70;99.90
37646;DHT22;23489;49.600;6.138;2023-06-22T14:24:44;25.80;99.90
37646;DHT22;23489;49.600;6.138;2023-06-22T14:27:09;25.80;99.90
37646;DHT22;23489;49.600;6.138;2023-06-22T14:29:35;25.90;99.90
37646;DHT22;23489;49.600;6.138;2023-06-22T14:32:00;25.90;99.90
37646;DHT22;23489;49.600;6.138;2023-06-22T14:34:26;26.00;99.90
37646;DHT22;23489;49.600;6.138;2023-06-22T14:36:51;26.20;99.90
37646;DHT22;23489;49.600;6.138;2023-06-22T14:39:17;26.40;99.90
37646;DHT22;23489;49.600;6.138;2023-06-22T14:41:43;26.60;99.90
37646;DHT22;23489;49.600;6.138;2023-06-22T14:44:08;26.60;99.90
37646;DHT22;23489;49.600;6.138;2023-06-22T14:46:35;26.70;99.90
37646;DHT22;23489;49.600;6.138;2023-06-22T14:49:00;26.50;99.90
37646;DHT22;23489;49.600;6.138;2023-06-22T14:51:26;26.40;99.90
37646;DHT22;23489;49.600;6.138;2023-06-22T14:53:52;26.40;99.90
37646;DHT22;23489;49.600;6.138;2023-06-22T14:56:17;26.30;99.90
37646;DHT22;23489;49.600;6.138;2023-06-22T14:58:43;26.40;99.90
37646;DHT22;23489;49.600;6.138;2023-06-22T15:01:11;26.40;99.90
37646;DHT22;23489;49.600;6.138;2023-06-22T15:03:37;26.00;99.90
37646;DHT22;23489;49.600;6.138;2023-06-22T15:06:03;26.00;99.90
37646;DHT22;23489;49.600;6.138;2023-06-22T15:08:29;25.90;99.90
37646;DHT22;23489;49.600;6.138;2023-06-22T15:10:54;26.00;99.90
37646;DHT22;23489;49.600;6.138;2023-06-22T15:13:21;25.90;99.90
37646;DHT22;23489;49.600;6.138;2023-06-22T15:15:47;25.60;99.90
37646;DHT22;23489;49.600;6.138;2023-06-22T15:18:13;25.50;99.90
37646;DHT22;23489;49.600;6.138;2023-06-22T15:20:39;25.40;99.90
37646;DHT22;23489;49.600;6.138;2023-06-22T15:23:05;25.40;99.90
37646;DHT22;23489;49.600;6.138;2023-06-22T15:25:31;25.40;99.90
37646;DHT22;23489;49.600;6.138;2023-06-22T15:27:56;25.40;99.90
37646;DHT22;23489;49.600;6.138;2023-06-22T15:30:22;25.40;99.90